Recent forum postings ...
2021-04-13
Change wake turbulence after filing FP
2021-04-12
KLM-VA site "not responding", is my flight toast?
2021-04-10
Fly KLM Mon CTL
2021-04-09
SCHEDULE FLIGHT BOEING 737
2021-04-08
Law and rules in KLM VA
2021-04-04
Flying a Tour.


 
Aircraft IdentFlightrulesType of Flight
NumberType of AircraftWake turbulenceEquipmentTransponder Type
Departure AerodromeDeparture Time
Cruising speedFlight level
Route




Destination AerodromeTotal EETAlternative Aerodrome
Other information

Explanation of the IVAO flightplan

Bhubaneshwar (VEBS), India

METAR
VEBS 081430Z 17011KT 4000 HZ BKN018 28/25 Q1007 NOSIG

WINDS at 13 mph
VISIBILITY6 miles
CONDITIONShaze
CLOUDSmostly cloudy
TEMP82°F (28°C)
DEWPT77°F (25°C)
HUMIDITY84%
HEAT INDEX90°F (32°C)
BAROMETER1007 hPa (29.74 in Hg)

Wujiaba (ZPPP), China

METAR
ZPPP 081400Z 02005MPS 6000 SCT016 SCT040 11/11 Q1021 NOSIG

WINDNNE at 11 mph
VISIBILITY10 miles
CONDITIONShaze
CLOUDSscattered clouds
TEMP52°F (11°C)
DEWPT52°F (11°C)
HUMIDITY100%
BAROMETER1021 hPa (30.15 in Hg)

Registration TimeGroundspeedAltitudeTransponderHeadingLongitudeLatitudeOn ground
15:15 08-04-20210 kts152 ft12005585.815520.2535Yes
15:180 kts152 ft12005585.815520.2535Yes
15:210 kts152 ft12005585.815520.2535Yes
15:240 kts152 ft12005585.815520.2535Yes
15:272 kts152 ft1200185.815220.253Yes
15:300 kts152 ft120032085.815320.2525Yes
15:330 kts152 ft120032085.815320.2525Yes
15:360 kts152 ft120032085.815320.2525Yes
15:395 kts152 ft120026385.813820.2537Yes
15:428 kts152 ft120032185.810920.253Yes
15:450 kts152 ft120014985.805220.2604Yes
15:484 kts152 ft120014185.806120.259Yes
15:51230 kts4266 ft12005885.872420.2815No
15:54325 kts11080 ft12006886.05820.3396No
15:57397 kts16183 ft12006986.26620.4039No
16:00428 kts22636 ft12003586.527920.5214No
16:03469 kts28182 ft12003686.728420.7507No